sensor_id;sensor_type;location;lat;lon;timestamp;P1;durP1;ratioP1;P2;durP2;ratioP2
59239;SDS011;45010;53.640;10.578;2022-09-21T00:02:59;0.38;;;0.22;;
59239;SDS011;45010;53.640;10.578;2022-09-21T00:06:10;0.38;;;0.30;;
59239;SDS011;45010;53.640;10.578;2022-09-21T00:09:14;0.60;;;0.30;;
59239;SDS011;45010;53.640;10.578;2022-09-21T00:12:15;0.80;;;0.28;;
59239;SDS011;45010;53.640;10.578;2022-09-21T00:15:16;0.75;;;0.22;;
59239;SDS011;45010;53.640;10.578;2022-09-21T00:18:19;0.80;;;0.30;;
59239;SDS011;45010;53.640;10.578;2022-09-21T00:21:20;0.82;;;0.40;;
59239;SDS011;45010;53.640;10.578;2022-09-21T00:24:20;0.52;;;0.40;;
59239;SDS011;45010;53.640;10.578;2022-09-21T00:27:21;0.85;;;0.30;;
59239;SDS011;45010;53.640;10.578;2022-09-21T00:30:29;0.85;;;0.40;;
59239;SDS011;45010;53.640;10.578;2022-09-21T00:33:29;0.73;;;0.40;;
59239;SDS011;45010;53.640;10.578;2022-09-21T00:36:29;0.52;;;0.40;;
59239;SDS011;45010;53.640;10.578;2022-09-21T00:39:29;0.43;;;0.30;;
59239;SDS011;45010;53.640;10.578;2022-09-21T00:42:32;0.85;;;0.50;;
59239;SDS011;45010;53.640;10.578;2022-09-21T00:45:33;0.75;;;0.30;;
59239;SDS011;45010;53.640;10.578;2022-09-21T00:48:34;1.27;;;0.50;;
59239;SDS011;45010;53.640;10.578;2022-09-21T00:51:35;0.73;;;0.20;;
59239;SDS011;45010;53.640;10.578;2022-09-21T00:54:38;0.63;;;0.40;;
59239;SDS011;45010;53.640;10.578;2022-09-21T00:57:52;0.20;;;0.20;;
59239;SDS011;45010;53.640;10.578;2022-09-21T01:00:58;0.70;;;0.30;;
59239;SDS011;45010;53.640;10.578;2022-09-21T01:03:59;0.55;;;0.45;;
59239;SDS011;45010;53.640;10.578;2022-09-21T01:07:01;0.30;;;0.30;;
59239;SDS011;45010;53.640;10.578;2022-09-21T01:10:05;0.55;;;0.30;;
59239;SDS011;45010;53.640;10.578;2022-09-21T01:13:18;0.57;;;0.30;;
59239;SDS011;45010;53.640;10.578;2022-09-21T01:16:56;0.30;;;0.30;;
59239;SDS011;45010;53.640;10.578;2022-09-21T01:23:38;0.38;;;0.38;;
59239;SDS011;45010;53.640;10.578;2022-09-21T01:29:59;1.27;;;0.38;;
59239;SDS011;45010;53.640;10.578;2022-09-21T01:36:17;0.55;;;0.30;;
59239;SDS011;45010;53.640;10.578;2022-09-21T01:39:23;0.73;;;0.40;;
59239;SDS011;45010;53.640;10.578;2022-09-21T01:42:26;0.30;;;0.28;;
59239;SDS011;45010;53.640;10.578;2022-09-21T01:45:31;0.70;;;0.40;;
59239;SDS011;45010;53.640;10.578;2022-09-21T01:48:36;0.20;;;0.20;;
59239;SDS011;45010;53.640;10.578;2022-09-21T01:51:43;0.52;;;0.30;;
59239;SDS011;45010;53.640;10.578;2022-09-21T01:55:06;0.43;;;0.30;;
59239;SDS011;45010;53.640;10.578;2022-09-21T02:01:33;0.28;;;0.28;;
59239;SDS011;45010;53.640;10.578;2022-09-21T02:04:40;0.40;;;0.35;;
59239;SDS011;45010;53.640;10.578;2022-09-21T02:07:40;0.40;;;0.20;;
59239;SDS011;45010;53.640;10.578;2022-09-21T02:10:44;0.63;;;0.30;;
59239;SDS011;45010;53.640;10.578;2022-09-21T02:13:47;1.30;;;0.28;;
59239;SDS011;45010;53.640;10.578;2022-09-21T02:16:54;0.40;;;0.25;;
59239;SDS011;45010;53.640;10.578;2022-09-21T02:20:06;0.30;;;0.30;;
59239;SDS011;45010;53.640;10.578;2022-09-21T02:23:20;1.63;;;0.30;;
59239;SDS011;45010;53.640;10.578;2022-09-21T02:26:32;0.40;;;0.30;;
59239;SDS011;45010;53.640;10.578;2022-09-21T02:36:07;0.30;;;0.20;;
59239;SDS011;45010;53.640;10.578;2022-09-21T02:39:15;0.35;;;0.28;;
59239;SDS011;45010;53.640;10.578;2022-09-21T02:42:21;0.30;;;0.28;;
59239;SDS011;45010;53.640;10.578;2022-09-21T02:45:28;0.50;;;0.35;;
59239;SDS011;45010;53.640;10.578;2022-09-21T02:48:35;0.30;;;0.30;;
59239;SDS011;45010;53.640;10.578;2022-09-21T02:51:49;0.40;;;0.30;;
59239;SDS011;45010;53.640;10.578;2022-09-21T02:54:52;0.30;;;0.20;;
59239;SDS011;45010;53.640;10.578;2022-09-21T02:57:54;0.35;;;0.35;;
59239;SDS011;45010;53.640;10.578;2022-09-21T03:00:55;0.82;;;0.25;;
59239;SDS011;45010;53.640;10.578;2022-09-21T03:03:58;0.10;;;0.10;;
59239;SDS011;45010;53.640;10.578;2022-09-21T03:06:58;0.30;;;0.20;;
59239;SDS011;45010;53.640;10.578;2022-09-21T03:09:59;0.30;;;0.20;;
59239;SDS011;45010;53.640;10.578;2022-09-21T03:12:59;0.40;;;0.22;;
59239;SDS011;45010;53.640;10.578;2022-09-21T03:16:01;0.30;;;0.30;;
59239;SDS011;45010;53.640;10.578;2022-09-21T03:19:03;0.40;;;0.40;;
59239;SDS011;45010;53.640;10.578;2022-09-21T03:22:04;0.60;;;0.40;;
59239;SDS011;45010;53.640;10.578;2022-09-21T03:25:05;0.20;;;0.20;;
59239;SDS011;45010;53.640;10.578;2022-09-21T03:28:05;0.52;;;0.20;;
59239;SDS011;45010;53.640;10.578;2022-09-21T03:31:06;0.47;;;0.30;;
59239;SDS011;45010;53.640;10.578;2022-09-21T03:34:06;0.20;;;0.20;;
59239;SDS011;45010;53.640;10.578;2022-09-21T03:37:07;0.20;;;0.20;;
59239;SDS011;45010;53.640;10.578;2022-09-21T03:40:08;0.43;;;0.20;;
59239;SDS011;45010;53.640;10.578;2022-09-21T03:43:10;0.20;;;0.20;;
59239;SDS011;45010;53.640;10.578;2022-09-21T03:46:11;0.20;;;0.20;;
59239;SDS011;45010;53.640;10.578;2022-09-21T03:49:11;0.50;;;0.30;;
59239;SDS011;45010;53.640;10.578;2022-09-21T03:52:12;0.45;;;0.20;;
59239;SDS011;45010;53.640;10.578;2022-09-21T03:55:12;0.30;;;0.20;;
59239;SDS011;45010;53.640;10.578;2022-09-21T03:58:12;0.28;;;0.28;;
59239;SDS011;45010;53.640;10.578;2022-09-21T04:01:13;0.50;;;0.28;;
59239;SDS011;45010;53.640;10.578;2022-09-21T04:04:14;0.20;;;0.20;;
59239;SDS011;45010;53.640;10.578;2022-09-21T04:07:15;0.20;;;0.20;;
59239;SDS011;45010;53.640;10.578;2022-09-21T04:10:17;0.47;;;0.30;;
59239;SDS011;45010;53.640;10.578;2022-09-21T04:13:21;0.20;;;0.20;;
59239;SDS011;45010;53.640;10.578;2022-09-21T04:16:23;0.35;;;0.30;;
59239;SDS011;45010;53.640;10.578;2022-09-21T04:19:24;0.30;;;0.30;;
59239;SDS011;45010;53.640;10.578;2022-09-21T04:22:24;0.40;;;0.20;;
59239;SDS011;45010;53.640;10.578;2022-09-21T04:25:25;0.28;;;0.20;;
59239;SDS011;45010;53.640;10.578;2022-09-21T04:28:25;0.20;;;0.20;;
59239;SDS011;45010;53.640;10.578;2022-09-21T04:31:26;0.20;;;0.20;;
59239;SDS011;45010;53.640;10.578;2022-09-21T04:34:27;0.57;;;0.45;;
59239;SDS011;45010;53.640;10.578;2022-09-21T04:37:30;0.50;;;0.20;;
59239;SDS011;45010;53.640;10.578;2022-09-21T04:40:30;0.22;;;0.20;;
59239;SDS011;45010;53.640;10.578;2022-09-21T04:43:30;0.88;;;0.30;;
59239;SDS011;45010;53.640;10.578;2022-09-21T04:46:30;0.20;;;0.20;;
59239;SDS011;45010;53.640;10.578;2022-09-21T04:49:31;0.43;;;0.20;;
59239;SDS011;45010;53.640;10.578;2022-09-21T04:52:31;0.38;;;0.20;;
59239;SDS011;45010;53.640;10.578;2022-09-21T04:55:31;0.50;;;0.30;;
59239;SDS011;45010;53.640;10.578;2022-09-21T04:58:32;0.40;;;0.30;;
59239;SDS011;45010;53.640;10.578;2022-09-21T05:01:32;1.02;;;0.20;;
59239;SDS011;45010;53.640;10.578;2022-09-21T05:04:33;0.40;;;0.30;;
59239;SDS011;45010;53.640;10.578;2022-09-21T05:07:33;0.25;;;0.25;;
59239;SDS011;45010;53.640;10.578;2022-09-21T05:10:33;0.63;;;0.40;;
59239;SDS011;45010;53.640;10.578;2022-09-21T05:13:35;0.55;;;0.30;;
59239;SDS011;45010;53.640;10.578;2022-09-21T05:16:35;1.75;;;0.30;;
59239;SDS011;45010;53.640;10.578;2022-09-21T05:19:35;0.20;;;0.20;;
59239;SDS011;45010;53.640;10.578;2022-09-21T05:22:36;0.20;;;0.20;;
59239;SDS011;45010;53.640;10.578;2022-09-21T05:25:36;0.40;;;0.20;;
59239;SDS011;45010;53.640;10.578;2022-09-21T05:28:36;0.28;;;0.20;;
59239;SDS011;45010;53.640;10.578;2022-09-21T05:31:38;0.47;;;0.30;;
59239;SDS011;45010;53.640;10.578;2022-09-21T05:34:53;0.30;;;0.20;;
59239;SDS011;45010;53.640;10.578;2022-09-21T05:38:14;0.22;;;0.20;;
59239;SDS011;45010;53.640;10.578;2022-09-21T05:41:17;0.95;;;0.20;;
59239;SDS011;45010;53.640;10.578;2022-09-21T05:44:18;0.20;;;0.20;;
59239;SDS011;45010;53.640;10.578;2022-09-21T05:57:20;0.77;;;0.30;;
59239;SDS011;45010;53.640;10.578;2022-09-21T06:00:37;0.60;;;0.22;;
59239;SDS011;45010;53.640;10.578;2022-09-21T06:03:59;0.63;;;0.20;;
59239;SDS011;45010;53.640;10.578;2022-09-21T06:07:01;0.75;;;0.40;;
59239;SDS011;45010;53.640;10.578;2022-09-21T06:10:01;0.43;;;0.30;;
59239;SDS011;45010;53.640;10.578;2022-09-21T06:13:02;0.20;;;0.20;;
59239;SDS011;45010;53.640;10.578;2022-09-21T06:16:02;0.95;;;0.30;;
59239;SDS011;45010;53.640;10.578;2022-09-21T06:19:03;0.20;;;0.20;;
59239;SDS011;45010;53.640;10.578;2022-09-21T06:22:04;0.40;;;0.30;;
59239;SDS011;45010;53.640;10.578;2022-09-21T06:25:04;0.40;;;0.30;;
59239;SDS011;45010;53.640;10.578;2022-09-21T06:28:06;0.55;;;0.28;;
59239;SDS011;45010;53.640;10.578;2022-09-21T06:31:09;0.90;;;0.30;;
59239;SDS011;45010;53.640;10.578;2022-09-21T06:34:09;0.50;;;0.30;;
59239;SDS011;45010;53.640;10.578;2022-09-21T06:37:09;1.13;;;0.40;;
59239;SDS011;45010;53.640;10.578;2022-09-21T06:40:09;2.15;;;0.40;;
59239;SDS011;45010;53.640;10.578;2022-09-21T06:43:10;2.20;;;0.40;;
59239;SDS011;45010;53.640;10.578;2022-09-21T06:46:10;0.30;;;0.30;;
59239;SDS011;45010;53.640;10.578;2022-09-21T06:49:10;2.22;;;0.30;;
59239;SDS011;45010;53.640;10.578;2022-09-21T06:52:11;4.20;;;0.32;;
59239;SDS011;45010;53.640;10.578;2022-09-21T06:55:11;1.98;;;0.40;;
59239;SDS011;45010;53.640;10.578;2022-09-21T06:58:12;0.95;;;0.20;;
59239;SDS011;45010;53.640;10.578;2022-09-21T07:01:13;1.27;;;0.40;;
59239;SDS011;45010;53.640;10.578;2022-09-21T07:04:14;0.98;;;0.43;;
59239;SDS011;45010;53.640;10.578;2022-09-21T07:07:14;1.15;;;0.40;;
59239;SDS011;45010;53.640;10.578;2022-09-21T07:10:15;2.63;;;0.68;;
59239;SDS011;45010;53.640;10.578;2022-09-21T07:13:16;2.00;;;0.50;;
59239;SDS011;45010;53.640;10.578;2022-09-21T07:16:17;2.92;;;0.60;;
59239;SDS011;45010;53.640;10.578;2022-09-21T07:19:18;3.25;;;0.40;;
59239;SDS011;45010;53.640;10.578;2022-09-21T07:22:18;0.85;;;0.50;;
59239;SDS011;45010;53.640;10.578;2022-09-21T07:25:19;1.48;;;0.30;;
59239;SDS011;45010;53.640;10.578;2022-09-21T07:28:19;4.03;;;0.40;;
59239;SDS011;45010;53.640;10.578;2022-09-21T07:31:19;2.58;;;0.68;;
59239;SDS011;45010;53.640;10.578;2022-09-21T07:34:20;2.03;;;0.60;;
59239;SDS011;45010;53.640;10.578;2022-09-21T07:37:20;1.55;;;0.40;;
59239;SDS011;45010;53.640;10.578;2022-09-21T07:40:22;1.40;;;0.40;;
59239;SDS011;45010;53.640;10.578;2022-09-21T07:43:23;1.30;;;0.40;;
59239;SDS011;45010;53.640;10.578;2022-09-21T07:46:23;1.85;;;0.30;;
59239;SDS011;45010;53.640;10.578;2022-09-21T07:49:24;3.22;;;0.40;;
59239;SDS011;45010;53.640;10.578;2022-09-21T07:52:25;1.63;;;0.30;;
59239;SDS011;45010;53.640;10.578;2022-09-21T07:55:26;4.15;;;0.60;;
59239;SDS011;45010;53.640;10.578;2022-09-21T07:58:27;0.90;;;0.50;;
59239;SDS011;45010;53.640;10.578;2022-09-21T08:01:46;1.55;;;0.63;;
59239;SDS011;45010;53.640;10.578;2022-09-21T08:04:46;1.42;;;0.40;;
59239;SDS011;45010;53.640;10.578;2022-09-21T08:07:46;0.82;;;0.40;;
59239;SDS011;45010;53.640;10.578;2022-09-21T08:10:47;2.85;;;0.40;;
59239;SDS011;45010;53.640;10.578;2022-09-21T08:13:47;2.38;;;0.30;;
59239;SDS011;45010;53.640;10.578;2022-09-21T08:16:51;1.25;;;0.35;;
59239;SDS011;45010;53.640;10.578;2022-09-21T08:19:51;2.60;;;0.40;;
59239;SDS011;45010;53.640;10.578;2022-09-21T08:22:54;1.83;;;0.43;;
59239;SDS011;45010;53.640;10.578;2022-09-21T08:25:58;2.63;;;0.60;;
59239;SDS011;45010;53.640;10.578;2022-09-21T08:29:02;1.00;;;0.50;;
59239;SDS011;45010;53.640;10.578;2022-09-21T08:32:02;0.93;;;0.40;;
59239;SDS011;45010;53.640;10.578;2022-09-21T08:35:03;0.60;;;0.32;;
59239;SDS011;45010;53.640;10.578;2022-09-21T08:38:03;1.60;;;0.40;;
59239;SDS011;45010;53.640;10.578;2022-09-21T08:44:52;0.52;;;0.30;;
59239;SDS011;45010;53.640;10.578;2022-09-21T08:47:57;1.63;;;0.55;;
59239;SDS011;45010;53.640;10.578;2022-09-21T08:50:59;2.08;;;0.40;;
59239;SDS011;45010;53.640;10.578;2022-09-21T08:54:07;2.25;;;0.40;;
59239;SDS011;45010;53.640;10.578;2022-09-21T08:57:14;1.08;;;0.35;;
59239;SDS011;45010;53.640;10.578;2022-09-21T09:00:17;1.35;;;0.50;;
59239;SDS011;45010;53.640;10.578;2022-09-21T09:03:20;0.82;;;0.20;;
59239;SDS011;45010;53.640;10.578;2022-09-21T09:06:33;0.93;;;0.40;;
59239;SDS011;45010;53.640;10.578;2022-09-21T09:13:06;2.55;;;0.40;;
59239;SDS011;45010;53.640;10.578;2022-09-21T09:16:24;1.75;;;0.30;;
59239;SDS011;45010;53.640;10.578;2022-09-21T09:19:32;2.85;;;0.57;;
59239;SDS011;45010;53.640;10.578;2022-09-21T09:23:01;1.23;;;0.30;;
59239;SDS011;45010;53.640;10.578;2022-09-21T09:26:14;1.17;;;0.30;;
59239;SDS011;45010;53.640;10.578;2022-09-21T09:32:58;0.75;;;0.30;;
59239;SDS011;45010;53.640;10.578;2022-09-21T09:36:05;0.93;;;0.30;;
59239;SDS011;45010;53.640;10.578;2022-09-21T09:39:10;2.45;;;0.30;;
59239;SDS011;45010;53.640;10.578;2022-09-21T09:42:15;0.30;;;0.30;;
59239;SDS011;45010;53.640;10.578;2022-09-21T09:51:53;1.42;;;0.20;;
59239;SDS011;45010;53.640;10.578;2022-09-21T09:54:54;3.42;;;0.30;;
59239;SDS011;45010;53.640;10.578;2022-09-21T09:57:54;2.17;;;0.40;;
59239;SDS011;45010;53.640;10.578;2022-09-21T10:00:55;3.15;;;0.57;;
59239;SDS011;45010;53.640;10.578;2022-09-21T10:04:06;1.85;;;0.20;;
59239;SDS011;45010;53.640;10.578;2022-09-21T10:07:16;2.10;;;0.25;;
59239;SDS011;45010;53.640;10.578;2022-09-21T10:13:28;0.45;;;0.40;;
59239;SDS011;45010;53.640;10.578;2022-09-21T10:16:30;0.90;;;0.20;;
59239;SDS011;45010;53.640;10.578;2022-09-21T10:19:30;0.90;;;0.30;;
59239;SDS011;45010;53.640;10.578;2022-09-21T10:22:31;0.93;;;0.30;;
59239;SDS011;45010;53.640;10.578;2022-09-21T10:25:31;0.88;;;0.30;;
59239;SDS011;45010;53.640;10.578;2022-09-21T10:28:32;1.73;;;0.20;;
59239;SDS011;45010;53.640;10.578;2022-09-21T10:31:32;1.50;;;0.40;;
59239;SDS011;45010;53.640;10.578;2022-09-21T10:34:33;1.10;;;0.38;;
59239;SDS011;45010;53.640;10.578;2022-09-21T10:37:44;2.95;;;0.30;;
59239;SDS011;45010;53.640;10.578;2022-09-21T10:40:52;1.15;;;0.22;;
59239;SDS011;45010;53.640;10.578;2022-09-21T10:43:53;1.35;;;0.40;;
59239;SDS011;45010;53.640;10.578;2022-09-21T10:46:54;0.40;;;0.30;;
59239;SDS011;45010;53.640;10.578;2022-09-21T10:49:56;1.35;;;0.40;;
59239;SDS011;45010;53.640;10.578;2022-09-21T10:53:00;1.10;;;0.30;;
59239;SDS011;45010;53.640;10.578;2022-09-21T11:02:24;1.58;;;0.40;;
59239;SDS011;45010;53.640;10.578;2022-09-21T11:05:38;1.92;;;0.35;;
59239;SDS011;45010;53.640;10.578;2022-09-21T11:09:44;1.40;;;0.30;;
59239;SDS011;45010;53.640;10.578;2022-09-21T11:12:25;2.05;;;0.40;;
59239;SDS011;45010;53.640;10.578;2022-09-21T11:18:35;1.77;;;0.45;;
59239;SDS011;45010;53.640;10.578;2022-09-21T11:28:20;0.73;;;0.22;;
59239;SDS011;45010;53.640;10.578;2022-09-21T11:45:06;4.13;;;0.30;;
59239;SDS011;45010;53.640;10.578;2022-09-21T11:48:35;0.93;;;0.35;;
59239;SDS011;45010;53.640;10.578;2022-09-21T11:55:09;1.17;;;0.50;;
59239;SDS011;45010;53.640;10.578;2022-09-21T11:58:45;1.40;;;0.30;;
59239;SDS011;45010;53.640;10.578;2022-09-21T12:04:58;1.23;;;0.30;;
59239;SDS011;45010;53.640;10.578;2022-09-21T12:08:13;3.70;;;0.28;;
59239;SDS011;45010;53.640;10.578;2022-09-21T12:11:38;0.80;;;0.22;;
59239;SDS011;45010;53.640;10.578;2022-09-21T12:15:08;0.60;;;0.38;;
59239;SDS011;45010;53.640;10.578;2022-09-21T12:18:37;0.80;;;0.38;;
59239;SDS011;45010;53.640;10.578;2022-09-21T12:21:48;0.60;;;0.30;;
59239;SDS011;45010;53.640;10.578;2022-09-21T12:24:57;0.40;;;0.38;;
59239;SDS011;45010;53.640;10.578;2022-09-21T12:28:09;0.95;;;0.43;;
59239;SDS011;45010;53.640;10.578;2022-09-21T12:31:25;1.13;;;0.30;;
59239;SDS011;45010;53.640;10.578;2022-09-21T12:34:34;1.25;;;0.73;;
59239;SDS011;45010;53.640;10.578;2022-09-21T12:37:59;1.48;;;0.40;;
59239;SDS011;45010;53.640;10.578;2022-09-21T12:44:22;1.50;;;0.20;;
59239;SDS011;45010;53.640;10.578;2022-09-21T12:54:14;0.85;;;0.20;;
59239;SDS011;45010;53.640;10.578;2022-09-21T12:57:45;0.47;;;0.30;;
59239;SDS011;45010;53.640;10.578;2022-09-21T13:00:59;1.73;;;0.20;;
59239;SDS011;45010;53.640;10.578;2022-09-21T13:04:10;1.30;;;0.30;;
59239;SDS011;45010;53.640;10.578;2022-09-21T13:07:32;0.25;;;0.10;;
59239;SDS011;45010;53.640;10.578;2022-09-21T13:10:45;0.30;;;0.28;;
59239;SDS011;45010;53.640;10.578;2022-09-21T13:13:58;0.45;;;0.15;;
59239;SDS011;45010;53.640;10.578;2022-09-21T13:17:03;0.32;;;0.20;;
59239;SDS011;45010;53.640;10.578;2022-09-21T13:20:05;0.55;;;0.30;;
59239;SDS011;45010;53.640;10.578;2022-09-21T13:26:40;3.30;;;0.20;;
59239;SDS011;45010;53.640;10.578;2022-09-21T13:29:43;0.22;;;0.22;;
59239;SDS011;45010;53.640;10.578;2022-09-21T13:32:51;1.05;;;0.20;;
59239;SDS011;45010;53.640;10.578;2022-09-21T13:39:10;0.65;;;0.38;;
59239;SDS011;45010;53.640;10.578;2022-09-21T13:42:41;1.20;;;0.30;;
59239;SDS011;45010;53.640;10.578;2022-09-21T13:48:37;1.58;;;0.30;;
59239;SDS011;45010;53.640;10.578;2022-09-21T13:54:59;3.22;;;0.30;;
59239;SDS011;45010;53.640;10.578;2022-09-21T13:58:06;2.47;;;0.28;;
59239;SDS011;45010;53.640;10.578;2022-09-21T14:01:20;1.38;;;0.30;;
59239;SDS011;45010;53.640;10.578;2022-09-21T14:04:28;3.72;;;0.28;;
59239;SDS011;45010;53.640;10.578;2022-09-21T14:07:32;1.05;;;0.20;;
59239;SDS011;45010;53.640;10.578;2022-09-21T14:10:34;0.30;;;0.20;;
59239;SDS011;45010;53.640;10.578;2022-09-21T14:13:37;0.52;;;0.40;;
59239;SDS011;45010;53.640;10.578;2022-09-21T14:20:24;1.17;;;0.20;;
59239;SDS011;45010;53.640;10.578;2022-09-21T14:23:25;2.58;;;0.40;;
59239;SDS011;45010;53.640;10.578;2022-09-21T14:26:32;1.48;;;0.20;;
59239;SDS011;45010;53.640;10.578;2022-09-21T14:29:39;1.38;;;0.20;;
59239;SDS011;45010;53.640;10.578;2022-09-21T14:32:44;0.38;;;0.30;;
59239;SDS011;45010;53.640;10.578;2022-09-21T14:35:48;0.20;;;0.20;;
59239;SDS011;45010;53.640;10.578;2022-09-21T14:38:54;0.35;;;0.30;;
59239;SDS011;45010;53.640;10.578;2022-09-21T14:42:00;0.40;;;0.30;;
59239;SDS011;45010;53.640;10.578;2022-09-21T14:45:14;0.73;;;0.20;;
59239;SDS011;45010;53.640;10.578;2022-09-21T14:48:20;0.38;;;0.30;;
59239;SDS011;45010;53.640;10.578;2022-09-21T14:51:43;1.85;;;0.20;;
59239;SDS011;45010;53.640;10.578;2022-09-21T14:55:19;1.05;;;0.20;;
59239;SDS011;45010;53.640;10.578;2022-09-21T15:08:15;1.05;;;0.30;;
59239;SDS011;45010;53.640;10.578;2022-09-21T15:11:38;4.22;;;0.38;;
59239;SDS011;45010;53.640;10.578;2022-09-21T15:14:46;1.05;;;0.20;;
59239;SDS011;45010;53.640;10.578;2022-09-21T15:17:58;2.40;;;0.30;;
59239;SDS011;45010;53.640;10.578;2022-09-21T15:21:01;1.55;;;0.85;;
59239;SDS011;45010;53.640;10.578;2022-09-21T15:24:09;3.35;;;2.28;;
59239;SDS011;45010;53.640;10.578;2022-09-21T15:27:21;2.83;;;1.92;;
59239;SDS011;45010;53.640;10.578;2022-09-21T15:30:25;3.40;;;1.75;;
59239;SDS011;45010;53.640;10.578;2022-09-21T15:33:28;2.70;;;1.23;;
59239;SDS011;45010;53.640;10.578;2022-09-21T15:36:28;2.72;;;1.58;;
59239;SDS011;45010;53.640;10.578;2022-09-21T15:39:30;3.15;;;1.20;;
59239;SDS011;45010;53.640;10.578;2022-09-21T15:42:31;1.50;;;1.40;;
59239;SDS011;45010;53.640;10.578;2022-09-21T15:48:57;1.83;;;1.50;;
59239;SDS011;45010;53.640;10.578;2022-09-21T15:51:59;3.80;;;1.52;;
59239;SDS011;45010;53.640;10.578;2022-09-21T15:55:09;2.58;;;1.13;;
59239;SDS011;45010;53.640;10.578;2022-09-21T15:58:27;3.13;;;1.30;;
59239;SDS011;45010;53.640;10.578;2022-09-21T16:01:38;3.92;;;1.35;;
59239;SDS011;45010;53.640;10.578;2022-09-21T16:04:44;1.38;;;1.05;;
59239;SDS011;45010;53.640;10.578;2022-09-21T16:08:02;4.95;;;1.30;;
59239;SDS011;45010;53.640;10.578;2022-09-21T16:11:16;1.40;;;0.93;;
59239;SDS011;45010;53.640;10.578;2022-09-21T16:14:24;2.50;;;1.17;;
59239;SDS011;45010;53.640;10.578;2022-09-21T16:18:02;1.98;;;1.27;;
59239;SDS011;45010;53.640;10.578;2022-09-21T16:21:07;1.33;;;1.00;;
59239;SDS011;45010;53.640;10.578;2022-09-21T16:24:27;1.98;;;0.82;;
59239;SDS011;45010;53.640;10.578;2022-09-21T16:27:30;2.58;;;1.10;;
59239;SDS011;45010;53.640;10.578;2022-09-21T16:30:38;1.23;;;0.90;;
59239;SDS011;45010;53.640;10.578;2022-09-21T16:33:43;1.85;;;1.20;;
59239;SDS011;45010;53.640;10.578;2022-09-21T16:36:56;3.15;;;1.20;;
59239;SDS011;45010;53.640;10.578;2022-09-21T16:39:57;2.03;;;1.10;;
59239;SDS011;45010;53.640;10.578;2022-09-21T16:42:58;1.17;;;0.80;;
59239;SDS011;45010;53.640;10.578;2022-09-21T16:45:59;1.17;;;0.80;;
59239;SDS011;45010;53.640;10.578;2022-09-21T16:49:01;2.15;;;0.90;;
59239;SDS011;45010;53.640;10.578;2022-09-21T16:52:01;2.25;;;1.27;;
59239;SDS011;45010;53.640;10.578;2022-09-21T16:55:02;1.92;;;0.80;;
59239;SDS011;45010;53.640;10.578;2022-09-21T16:58:02;1.55;;;1.10;;
59239;SDS011;45010;53.640;10.578;2022-09-21T17:01:03;1.52;;;1.02;;
59239;SDS011;45010;53.640;10.578;2022-09-21T17:04:03;1.35;;;0.90;;
59239;SDS011;45010;53.640;10.578;2022-09-21T17:07:04;1.65;;;0.93;;
59239;SDS011;45010;53.640;10.578;2022-09-21T17:10:11;0.95;;;0.80;;
59239;SDS011;45010;53.640;10.578;2022-09-21T17:13:15;2.28;;;1.05;;
59239;SDS011;45010;53.640;10.578;2022-09-21T17:16:18;2.35;;;1.17;;
59239;SDS011;45010;53.640;10.578;2022-09-21T17:19:19;3.50;;;0.98;;
59239;SDS011;45010;53.640;10.578;2022-09-21T17:22:20;1.50;;;0.70;;
59239;SDS011;45010;53.640;10.578;2022-09-21T17:25:20;1.80;;;0.90;;
59239;SDS011;45010;53.640;10.578;2022-09-21T17:28:24;1.25;;;0.95;;
59239;SDS011;45010;53.640;10.578;2022-09-21T17:31:25;2.30;;;0.80;;
59239;SDS011;45010;53.640;10.578;2022-09-21T17:34:27;3.38;;;0.82;;
59239;SDS011;45010;53.640;10.578;2022-09-21T17:37:33;1.13;;;0.90;;
59239;SDS011;45010;53.640;10.578;2022-09-21T17:40:34;0.68;;;0.68;;
59239;SDS011;45010;53.640;10.578;2022-09-21T17:43:36;0.75;;;0.70;;
59239;SDS011;45010;53.640;10.578;2022-09-21T17:46:59;1.58;;;0.73;;
59239;SDS011;45010;53.640;10.578;2022-09-21T17:53:11;1.13;;;0.68;;
59239;SDS011;45010;53.640;10.578;2022-09-21T17:56:42;0.77;;;0.60;;
59239;SDS011;45010;53.640;10.578;2022-09-21T18:00:11;1.50;;;0.77;;
59239;SDS011;45010;53.640;10.578;2022-09-21T18:03:21;2.58;;;0.90;;
59239;SDS011;45010;53.640;10.578;2022-09-21T18:06:23;1.10;;;0.80;;
59239;SDS011;45010;53.640;10.578;2022-09-21T18:09:25;0.85;;;0.60;;
59239;SDS011;45010;53.640;10.578;2022-09-21T18:12:35;2.22;;;0.70;;
59239;SDS011;45010;53.640;10.578;2022-09-21T18:15:55;1.92;;;0.60;;
59239;SDS011;45010;53.640;10.578;2022-09-21T18:19:28;1.00;;;0.60;;
59239;SDS011;45010;53.640;10.578;2022-09-21T18:22:36;1.38;;;0.70;;
59239;SDS011;45010;53.640;10.578;2022-09-21T18:25:49;0.80;;;0.70;;
59239;SDS011;45010;53.640;10.578;2022-09-21T18:28:54;0.75;;;0.60;;
59239;SDS011;45010;53.640;10.578;2022-09-21T18:35:38;1.58;;;0.63;;
59239;SDS011;45010;53.640;10.578;2022-09-21T18:39:05;1.02;;;0.73;;
59239;SDS011;45010;53.640;10.578;2022-09-21T18:46:03;1.90;;;0.60;;
59239;SDS011;45010;53.640;10.578;2022-09-21T18:52:28;2.33;;;0.75;;
59239;SDS011;45010;53.640;10.578;2022-09-21T18:55:35;2.20;;;0.70;;
59239;SDS011;45010;53.640;10.578;2022-09-21T18:58:37;0.70;;;0.60;;
59239;SDS011;45010;53.640;10.578;2022-09-21T19:01:37;0.73;;;0.60;;
59239;SDS011;45010;53.640;10.578;2022-09-21T19:04:38;1.23;;;0.70;;
59239;SDS011;45010;53.640;10.578;2022-09-21T19:07:40;1.10;;;0.60;;
59239;SDS011;45010;53.640;10.578;2022-09-21T19:14:06;1.77;;;0.60;;
59239;SDS011;45010;53.640;10.578;2022-09-21T19:17:33;0.55;;;0.50;;
59239;SDS011;45010;53.640;10.578;2022-09-21T19:20:50;0.65;;;0.52;;
59239;SDS011;45010;53.640;10.578;2022-09-21T19:24:11;0.95;;;0.68;;
59239;SDS011;45010;53.640;10.578;2022-09-21T19:30:42;0.90;;;0.70;;
59239;SDS011;45010;53.640;10.578;2022-09-21T19:33:43;0.60;;;0.50;;
59239;SDS011;45010;53.640;10.578;2022-09-21T19:36:45;1.45;;;0.65;;
59239;SDS011;45010;53.640;10.578;2022-09-21T19:39:46;0.75;;;0.50;;
59239;SDS011;45010;53.640;10.578;2022-09-21T19:42:57;0.75;;;0.57;;
59239;SDS011;45010;53.640;10.578;2022-09-21T19:49:15;0.90;;;0.50;;
59239;SDS011;45010;53.640;10.578;2022-09-21T19:52:18;0.70;;;0.70;;
59239;SDS011;45010;53.640;10.578;2022-09-21T19:55:23;0.70;;;0.50;;
59239;SDS011;45010;53.640;10.578;2022-09-21T19:58:43;0.73;;;0.50;;
59239;SDS011;45010;53.640;10.578;2022-09-21T20:02:02;0.73;;;0.70;;
59239;SDS011;45010;53.640;10.578;2022-09-21T20:05:06;1.27;;;0.73;;
59239;SDS011;45010;53.640;10.578;2022-09-21T20:08:29;1.55;;;0.57;;
59239;SDS011;45010;53.640;10.578;2022-09-21T20:11:59;1.27;;;0.50;;
59239;SDS011;45010;53.640;10.578;2022-09-21T20:15:20;2.10;;;0.68;;
59239;SDS011;45010;53.640;10.578;2022-09-21T20:18:38;0.77;;;0.68;;
59239;SDS011;45010;53.640;10.578;2022-09-21T20:21:47;1.95;;;0.95;;
59239;SDS011;45010;53.640;10.578;2022-09-21T20:24:54;0.70;;;0.60;;
59239;SDS011;45010;53.640;10.578;2022-09-21T20:28:03;1.05;;;0.50;;
59239;SDS011;45010;53.640;10.578;2022-09-21T20:31:04;1.02;;;0.63;;
59239;SDS011;45010;53.640;10.578;2022-09-21T20:34:04;0.55;;;0.45;;
59239;SDS011;45010;53.640;10.578;2022-09-21T20:37:08;0.73;;;0.60;;
59239;SDS011;45010;53.640;10.578;2022-09-21T20:40:11;0.60;;;0.57;;
59239;SDS011;45010;53.640;10.578;2022-09-21T20:43:12;0.50;;;0.45;;
59239;SDS011;45010;53.640;10.578;2022-09-21T20:46:15;0.57;;;0.40;;
59239;SDS011;45010;53.640;10.578;2022-09-21T20:49:16;0.85;;;0.50;;
59239;SDS011;45010;53.640;10.578;2022-09-21T20:52:16;1.02;;;0.55;;
59239;SDS011;45010;53.640;10.578;2022-09-21T20:55:16;2.30;;;0.60;;